General Aviation Weather

Text Reports

Enter one or more of the following location identifiers separated by a space:

Zip Code, Four-Character ICAO or Three-Character IATA airport codes.

METAR - Aviation Routine Weather Report
ESMT - Halmstad,
Updated at 3:20 AM GMT on May 06, 2015 (5:20 AM CEST):
METAR ESMT 060320Z 24010KT 7000 BR FEW052 09/07 Q1006
TAF - Terminal Area Forecast
ESMT - Halmstad,
Updated at 3:20 AM GMT on May 06, 2015 (5:20 AM CEST):
No TAF is currently available for this location.
Decoded:
No decoded TAF is available.
PIREP - Pilot Weather Report
ESMT - Halmstad,
Updated at 3:20 AM GMT on May 06, 2015 (5:20 AM CEST):
No PIREP is currently available for this location.
AIRMET - Airmens Meteorological Information
ESMT - Halmstad,
Updated at 3:20 AM GMT on May 06, 2015 (5:20 AM CEST):
No AIRMET is currently available for this location.
SIGMET - Significant Meteorological Information
ESMT - Halmstad,
Updated at 3:20 AM GMT on May 06, 2015 (5:20 AM CEST):
No SIGMET is currently available for this location.
NOTAM - Notice to Airmen
ESMT - Halmstad,
Updated at 3:20 AM GMT on May 06, 2015 (5:20 AM CEST):
No NOTAM is currently available for this location.
Forecast Area
ESMT - Halmstad,
Updated at 3:20 AM GMT on May 06, 2015 (5:20 AM CEST):
No NOTAM is currently available for this location.
Aviation Weather Maps